createdAt,value
2022-07-29T00:01:42.762Z,30.16
2022-07-29T00:04:10.399Z,28.94
2022-07-29T00:06:37.658Z,29.45
2022-07-29T00:09:05.893Z,28.93
2022-07-29T00:11:33.545Z,29.46
2022-07-29T00:14:00.705Z,28.24
2022-07-29T00:16:27.948Z,28.42
2022-07-29T00:18:55.412Z,28.57
2022-07-29T00:21:22.570Z,28.20
2022-07-29T00:23:50.189Z,29.48
2022-07-29T00:26:17.733Z,28.92
2022-07-29T00:28:45.112Z,29.42
2022-07-29T00:31:12.518Z,30.29
2022-07-29T00:33:40.198Z,29.96
2022-07-29T00:36:07.400Z,30.12
2022-07-29T00:38:34.580Z,29.83
2022-07-29T00:41:02.273Z,29.40
2022-07-29T00:43:29.638Z,29.35
2022-07-29T00:45:56.830Z,28.46
2022-07-29T00:48:24.466Z,27.76
2022-07-29T00:50:51.836Z,28.50
2022-07-29T00:53:19.206Z,28.38
2022-07-29T00:55:46.677Z,27.37
2022-07-29T00:58:14.880Z,27.40
2022-07-29T01:00:43.800Z,28.82
2022-07-29T01:03:13.226Z,28.54
2022-07-29T01:05:49.839Z,28.35
2022-07-29T01:08:18.745Z,28.45
2022-07-29T01:10:45.937Z,28.88
2022-07-29T01:13:13.139Z,27.63
2022-07-29T01:15:49.474Z,28.16
2022-07-29T01:18:25.636Z,27.99
2022-07-29T01:21:02.794Z,27.35
2022-07-29T01:23:29.928Z,26.89
2022-07-29T01:26:16.105Z,27.09
2022-07-29T01:29:01.469Z,27.70
2022-07-29T01:31:36.610Z,27.11
2022-07-29T01:34:08.634Z,27.25
2022-07-29T01:36:37.272Z,27.69
2022-07-29T01:39:10.256Z,28.44
2022-07-29T01:41:38.698Z,27.87
2022-07-29T01:44:16.812Z,28.35
2022-07-29T01:46:45.656Z,28.57
2022-07-29T01:49:15.384Z,27.85
2022-07-29T01:51:44.994Z,27.77
2022-07-29T01:54:18.119Z,27.57
2022-07-29T01:56:46.161Z,27.94
2022-07-29T01:59:13.703Z,27.29
2022-07-29T02:01:41.257Z,27.05
2022-07-29T02:04:10.809Z,28.08
2022-07-29T02:06:38.799Z,27.68
2022-07-29T02:09:06.031Z,28.53
2022-07-29T02:11:36.142Z,29.28
2022-07-29T02:14:03.543Z,29.09
2022-07-29T02:16:31.649Z,28.70
2022-07-29T02:18:59.182Z,28.24
2022-07-29T02:21:26.393Z,28.89
2022-07-29T02:23:54.142Z,28.36
2022-07-29T02:26:21.954Z,27.78
2022-07-29T02:28:49.752Z,28.36
2022-07-29T02:31:18.749Z,27.97
2022-07-29T02:33:46.581Z,28.33
2022-07-29T02:36:13.972Z,27.55
2022-07-29T02:38:53.845Z,28.04
2022-07-29T02:41:22.423Z,27.31
2022-07-29T02:43:50.086Z,27.23
2022-07-29T02:46:29.533Z,27.08
2022-07-29T02:48:59.443Z,27.39
2022-07-29T02:51:43.587Z,26.80
2022-07-29T02:54:13.300Z,27.13
2022-07-29T02:56:40.977Z,27.40
2022-07-29T02:59:10.171Z,26.90
2022-07-29T03:01:37.866Z,27.07
2022-07-29T03:04:06.051Z,26.65
2022-07-29T03:06:38.480Z,26.76
2022-07-29T03:09:12.491Z,27.34
2022-07-29T03:11:49.791Z,26.85
2022-07-29T03:14:19.458Z,27.37
2022-07-29T03:16:47.127Z,27.92
2022-07-29T03:19:14.380Z,27.22
2022-07-29T03:21:41.829Z,27.41
2022-07-29T03:24:10.781Z,27.12
2022-07-29T03:26:38.611Z,26.97
2022-07-29T03:29:06.054Z,27.27
2022-07-29T03:31:35.253Z,27.39
2022-07-29T03:34:02.472Z,26.93
2022-07-29T03:36:29.935Z,27.62
2022-07-29T03:38:58.329Z,28.22
2022-07-29T03:41:25.514Z,27.77
2022-07-29T03:43:53.011Z,27.53
2022-07-29T03:46:20.564Z,27.91
2022-07-29T03:48:48.007Z,27.34
2022-07-29T03:51:15.533Z,28.30
2022-07-29T03:53:42.905Z,27.62
2022-07-29T03:56:10.305Z,27.86
2022-07-29T03:58:37.789Z,28.03
2022-07-29T04:01:04.994Z,27.67
2022-07-29T04:03:32.491Z,27.89
2022-07-29T04:06:00.626Z,27.98
2022-07-29T04:08:27.925Z,28.06
2022-07-29T04:10:55.453Z,27.13
2022-07-29T04:13:22.731Z,28.10
2022-07-29T04:15:50.014Z,27.73
2022-07-29T04:18:17.685Z,27.78
2022-07-29T04:20:45.084Z,26.86
2022-07-29T04:23:12.260Z,28.10
2022-07-29T04:25:40.629Z,28.54
2022-07-29T04:28:07.953Z,27.82
2022-07-29T04:30:35.598Z,27.69
2022-07-29T04:33:03.802Z,28.39
2022-07-29T04:35:36.778Z,29.18
2022-07-29T04:38:06.861Z,28.31
2022-07-29T04:40:34.318Z,28.22
2022-07-29T04:43:01.987Z,28.46
2022-07-29T04:45:34.336Z,28.67
2022-07-29T04:48:01.526Z,28.97
2022-07-29T04:50:28.736Z,29.37
2022-07-29T04:52:56.216Z,28.85
2022-07-29T04:55:25.921Z,27.80
2022-07-29T04:57:53.114Z,29.04
2022-07-29T05:00:20.556Z,29.61
2022-07-29T05:02:47.776Z,29.75
2022-07-29T05:05:16.269Z,29.12
2022-07-29T05:07:43.710Z,29.34
2022-07-29T05:10:10.915Z,29.98
2022-07-29T05:12:38.117Z,29.99
2022-07-29T05:15:05.906Z,29.83
2022-07-29T05:17:33.064Z,29.90
2022-07-29T05:20:00.348Z,29.98
2022-07-29T05:22:27.801Z,29.48
2022-07-29T05:24:54.987Z,29.99
2022-07-29T05:27:22.259Z,28.98
2022-07-29T05:29:49.731Z,28.99
2022-07-29T05:32:16.915Z,29.65
2022-07-29T05:34:51.229Z,29.09
2022-07-29T05:37:22.294Z,28.86
2022-07-29T05:39:56.394Z,30.11
2022-07-29T05:42:25.312Z,30.42
2022-07-29T05:44:52.727Z,30.47
2022-07-29T05:47:20.122Z,31.09
2022-07-29T05:49:47.564Z,30.98
2022-07-29T05:52:14.737Z,31.06
2022-07-29T05:54:41.938Z,30.58
2022-07-29T05:57:09.541Z,29.87
2022-07-29T05:59:37.424Z,30.08
2022-07-29T06:02:06.129Z,30.64
2022-07-29T06:04:34.796Z,30.36
2022-07-29T06:07:07.072Z,30.81
2022-07-29T06:09:36.343Z,31.65
2022-07-29T06:12:04.209Z,30.70
2022-07-29T06:14:31.366Z,31.86
2022-07-29T06:16:58.854Z,31.23
2022-07-29T06:19:26.056Z,31.16
2022-07-29T06:21:53.418Z,30.78
2022-07-29T06:24:21.009Z,31.37
2022-07-29T06:26:48.238Z,31.26
2022-07-29T06:29:15.424Z,30.99
2022-07-29T06:31:42.963Z,30.87
2022-07-29T06:34:10.223Z,29.92
2022-07-29T06:36:38.234Z,30.92
2022-07-29T06:39:07.845Z,30.48
2022-07-29T06:41:35.134Z,31.13
2022-07-29T06:44:03.713Z,31.00
2022-07-29T06:46:31.321Z,30.46
2022-07-29T06:48:58.614Z,31.91
2022-07-29T06:51:26.171Z,30.72
2022-07-29T06:53:59.076Z,31.02
2022-07-29T06:56:39.017Z,30.74
2022-07-29T06:59:08.066Z,30.23
2022-07-29T07:01:36.294Z,30.19
2022-07-29T07:04:03.605Z,30.78
2022-07-29T07:06:31.371Z,32.40
2022-07-29T07:08:58.604Z,31.61
2022-07-29T07:11:25.814Z,31.83
2022-07-29T07:13:53.320Z,31.93
2022-07-29T07:16:20.560Z,31.61
2022-07-29T07:18:47.877Z,32.20
2022-07-29T07:21:19.116Z,32.79
2022-07-29T07:23:47.079Z,32.94
2022-07-29T07:26:14.850Z,33.02
2022-07-29T07:28:42.079Z,32.99
2022-07-29T07:31:10.457Z,33.41
2022-07-29T07:33:39.992Z,33.75
2022-07-29T07:36:07.635Z,33.21
2022-07-29T07:38:34.955Z,32.30
2022-07-29T07:41:02.447Z,32.88
2022-07-29T07:43:29.690Z,33.70
2022-07-29T07:45:56.947Z,33.75
2022-07-29T07:48:24.617Z,33.55
2022-07-29T07:50:52.451Z,33.19
2022-07-29T07:53:19.908Z,33.00
2022-07-29T07:56:16.351Z,33.31
2022-07-29T07:58:36.277Z,32.20
2022-07-29T08:01:03.864Z,31.77
2022-07-29T08:03:31.341Z,33.60
2022-07-29T08:05:58.612Z,34.33
2022-07-29T08:08:25.814Z,34.61
2022-07-29T08:10:53.770Z,34.51
2022-07-29T08:13:22.101Z,33.45
2022-07-29T08:15:58.465Z,33.10
2022-07-29T08:18:27.019Z,32.39
2022-07-29T08:20:54.293Z,33.29
2022-07-29T08:23:45.496Z,33.46
2022-07-29T08:26:14.814Z,33.75
2022-07-29T08:28:45.755Z,33.45
2022-07-29T08:31:13.559Z,34.23
2022-07-29T08:33:41.151Z,34.30
2022-07-29T08:36:08.385Z,33.45
2022-07-29T08:38:35.569Z,34.76
2022-07-29T08:41:03.064Z,33.51
2022-07-29T08:43:30.271Z,34.01
2022-07-29T08:45:57.491Z,33.98
2022-07-29T08:48:25.727Z,34.34
2022-07-29T08:50:56.962Z,34.88
2022-07-29T08:53:25.469Z,34.78
2022-07-29T08:55:52.656Z,33.84
2022-07-29T08:58:23.021Z,34.62
2022-07-29T09:00:51.682Z,34.28
2022-07-29T09:03:19.957Z,34.88
2022-07-29T09:05:48.307Z,33.97
2022-07-29T09:08:16.205Z,35.59
2022-07-29T09:10:43.653Z,34.07
2022-07-29T09:13:10.945Z,35.18
2022-07-29T09:15:38.466Z,34.29
2022-07-29T09:18:05.659Z,33.56
2022-07-29T09:20:51.352Z,34.43
2022-07-29T09:23:23.420Z,34.99
2022-07-29T09:25:51.854Z,35.63
2022-07-29T09:28:19.328Z,35.73
2022-07-29T09:30:53.158Z,35.51
2022-07-29T09:33:21.465Z,36.21
2022-07-29T09:35:59.472Z,35.93
2022-07-29T09:38:33.659Z,35.98
2022-07-29T09:41:10.372Z,35.81
2022-07-29T09:43:53.815Z,36.75
2022-07-29T09:46:24.101Z,36.25
2022-07-29T09:49:10.844Z,35.91
2022-07-29T09:51:38.831Z,35.61
2022-07-29T09:54:29.629Z,36.15
2022-07-29T09:57:05.573Z,36.35
2022-07-29T09:59:50.619Z,36.69
2022-07-29T10:02:24.257Z,36.88
2022-07-29T10:04:54.397Z,36.34
2022-07-29T10:07:27.585Z,36.13
2022-07-29T10:10:01.331Z,36.51
2022-07-29T10:12:31.874Z,36.97
2022-07-29T10:14:59.325Z,37.17
2022-07-29T10:17:26.500Z,36.27
2022-07-29T10:19:55.507Z,36.48
2022-07-29T10:22:50.769Z,36.97
2022-07-29T10:25:46.179Z,36.54
2022-07-29T10:28:21.339Z,36.52
2022-07-29T10:30:48.558Z,37.09
2022-07-29T10:33:18.803Z,36.91
2022-07-29T10:36:05.097Z,37.01
2022-07-29T10:38:35.216Z,35.98
2022-07-29T10:41:32.107Z,36.33
2022-07-29T10:44:14.767Z,35.97
2022-07-29T10:46:45.017Z,37.19
2022-07-29T10:49:15.457Z,36.99
2022-07-29T10:51:57.661Z,36.48
2022-07-29T10:54:42.441Z,36.55
2022-07-29T10:57:14.210Z,36.77
2022-07-29T10:59:42.920Z,37.50
2022-07-29T11:02:43.966Z,36.44
2022-07-29T11:05:22.095Z,36.98
2022-07-29T11:08:08.058Z,36.69
2022-07-29T11:10:35.553Z,37.30
2022-07-29T11:13:02.737Z,37.79
2022-07-29T11:15:32.218Z,38.42
2022-07-29T11:18:01.257Z,38.81
2022-07-29T11:20:36.659Z,38.78
2022-07-29T11:23:33.997Z,38.38
2022-07-29T11:26:18.597Z,37.03
2022-07-29T11:28:58.728Z,37.09
2022-07-29T11:31:36.477Z,36.92
2022-07-29T11:34:28.218Z,36.70
2022-07-29T11:37:10.214Z,36.57
2022-07-29T11:39:37.825Z,37.56
2022-07-29T11:42:32.577Z,37.84
2022-07-29T11:45:08.806Z,38.05
2022-07-29T11:47:51.779Z,38.77
2022-07-29T11:50:28.867Z,38.60
2022-07-29T11:52:56.088Z,38.87
2022-07-29T11:55:24.235Z,38.61
2022-07-29T11:58:03.809Z,38.07
2022-07-29T12:00:33.737Z,39.07
2022-07-29T12:03:03.204Z,38.60
2022-07-29T12:05:36.981Z,36.94
2022-07-29T12:08:08.528Z,38.17
2022-07-29T12:10:40.366Z,36.43
2022-07-29T12:13:08.338Z,36.44
2022-07-29T12:15:45.950Z,36.58
2022-07-29T12:18:15.627Z,37.18
2022-07-29T12:20:45.755Z,38.28
2022-07-29T12:23:13.294Z,38.50
2022-07-29T12:25:41.492Z,37.66
2022-07-29T12:28:10.381Z,38.29
2022-07-29T12:30:51.658Z,37.53
2022-07-29T12:33:19.174Z,37.34
2022-07-29T12:36:03.773Z,37.99
2022-07-29T12:38:35.750Z,38.96
2022-07-29T12:41:04.737Z,39.09
2022-07-29T12:43:32.315Z,38.55
2022-07-29T12:46:00.333Z,38.60
2022-07-29T12:48:37.514Z,37.95
2022-07-29T12:51:05.383Z,38.64
2022-07-29T12:53:32.946Z,38.61
2022-07-29T12:56:08.037Z,38.78
2022-07-29T12:58:44.472Z,39.08
2022-07-29T13:01:17.166Z,39.45
2022-07-29T13:03:57.045Z,39.19
2022-07-29T13:06:32.547Z,38.83
2022-07-29T13:09:27.734Z,38.08
2022-07-29T13:12:00.551Z,36.90
2022-07-29T13:14:37.885Z,37.25
2022-07-29T13:17:09.318Z,37.69
2022-07-29T13:19:47.339Z,38.54
2022-07-29T13:22:16.495Z,38.12
2022-07-29T13:24:49.410Z,38.20
2022-07-29T13:27:18.167Z,37.77
2022-07-29T13:29:45.729Z,38.43
2022-07-29T13:32:13.257Z,38.29
2022-07-29T13:34:41.801Z,38.19
2022-07-29T13:37:09.819Z,38.65
2022-07-29T13:39:40.910Z,38.33
2022-07-29T13:42:11.062Z,38.40
2022-07-29T13:44:39.165Z,37.64
2022-07-29T13:47:12.056Z,37.31
2022-07-29T13:49:39.667Z,37.61
2022-07-29T13:52:08.431Z,37.82
2022-07-29T13:54:42.344Z,38.32
2022-07-29T13:57:19.189Z,37.32
2022-07-29T13:59:49.472Z,38.30
2022-07-29T14:02:20.984Z,38.86
2022-07-29T14:04:48.706Z,38.67
2022-07-29T14:07:16.309Z,38.77
2022-07-29T14:09:43.876Z,38.40
2022-07-29T14:12:11.445Z,37.81
2022-07-29T14:14:43.219Z,37.72
2022-07-29T14:17:16.293Z,38.48
2022-07-29T14:19:43.955Z,38.21
2022-07-29T14:22:11.477Z,37.84
2022-07-29T14:24:38.987Z,38.56
2022-07-29T14:27:06.693Z,38.17
2022-07-29T14:29:38.297Z,38.60
2022-07-29T14:32:10.023Z,38.88
2022-07-29T14:34:37.734Z,38.51
2022-07-29T14:37:06.686Z,38.74
2022-07-29T14:39:36.127Z,38.55
2022-07-29T14:42:07.042Z,38.58
2022-07-29T14:44:34.219Z,37.94
2022-07-29T14:47:07.982Z,37.52
2022-07-29T14:49:36.233Z,37.16
2022-07-29T14:52:03.899Z,37.37
2022-07-29T14:54:31.101Z,37.43
2022-07-29T14:56:58.913Z,38.16
2022-07-29T14:59:26.617Z,38.31
2022-07-29T15:01:54.049Z,37.64
2022-07-29T15:04:21.572Z,37.40
2022-07-29T15:06:48.934Z,37.23
2022-07-29T15:09:16.175Z,37.06
2022-07-29T15:11:43.634Z,37.66
2022-07-29T15:14:10.924Z,37.63
2022-07-29T15:16:38.494Z,37.58
2022-07-29T15:19:06.152Z,37.75
2022-07-29T15:21:33.386Z,38.64
2022-07-29T15:24:00.654Z,38.50
2022-07-29T15:26:28.086Z,39.19
2022-07-29T15:28:57.192Z,38.93
2022-07-29T15:31:35.609Z,38.76
2022-07-29T15:34:05.949Z,38.50
2022-07-29T15:36:56.094Z,38.59
2022-07-29T15:39:37.149Z,39.35
2022-07-29T15:42:24.779Z,39.24
2022-07-29T15:45:00.786Z,39.16
2022-07-29T15:47:30.563Z,39.06
2022-07-29T15:50:01.722Z,39.51
2022-07-29T15:52:33.237Z,39.44
2022-07-29T15:55:23.889Z,39.31
2022-07-29T15:58:09.633Z,38.84
2022-07-29T16:00:38.359Z,38.85
2022-07-29T16:03:09.314Z,39.21
2022-07-29T16:05:48.471Z,39.16
2022-07-29T16:08:21.615Z,38.53
2022-07-29T16:10:55.888Z,39.16
2022-07-29T16:13:30.413Z,38.48
2022-07-29T16:16:06.665Z,37.64
2022-07-29T16:18:41.652Z,38.68
2022-07-29T16:21:19.429Z,39.12
2022-07-29T16:23:46.871Z,39.18
2022-07-29T16:26:14.209Z,39.06
2022-07-29T16:28:41.700Z,39.28
2022-07-29T16:31:09.447Z,38.68
2022-07-29T16:33:55.023Z,39.08
2022-07-29T16:36:23.412Z,39.28
2022-07-29T16:38:50.608Z,39.42
2022-07-29T16:41:17.818Z,39.27
2022-07-29T16:43:45.410Z,39.06
2022-07-29T16:46:15.642Z,39.11
2022-07-29T16:48:47.741Z,38.82
2022-07-29T16:51:15.837Z,38.72
2022-07-29T16:53:43.057Z,38.82
2022-07-29T16:56:12.766Z,38.85
2022-07-29T16:58:43.572Z,38.69
2022-07-29T17:01:11.776Z,38.59
2022-07-29T17:04:00.514Z,38.66
2022-07-29T17:06:29.421Z,38.65
2022-07-29T17:08:57.053Z,38.35
2022-07-29T17:11:53.924Z,38.44
2022-07-29T17:14:12.026Z,38.50
2022-07-29T17:16:39.257Z,38.24
2022-07-29T17:19:06.436Z,38.41
2022-07-29T17:21:33.886Z,38.37
2022-07-29T17:24:01.101Z,38.29
2022-07-29T17:26:28.441Z,38.31
2022-07-29T17:28:55.986Z,38.35
2022-07-29T17:31:23.500Z,38.24
2022-07-29T17:33:50.799Z,38.16
2022-07-29T17:36:24.289Z,38.29
2022-07-29T17:38:52.842Z,38.05
2022-07-29T17:41:20.974Z,38.03
2022-07-29T17:43:48.635Z,37.93
2022-07-29T17:46:16.201Z,37.96
2022-07-29T17:48:43.935Z,37.90
2022-07-29T17:51:11.355Z,37.84
2022-07-29T17:53:38.720Z,37.83
2022-07-29T17:56:06.191Z,37.88
2022-07-29T17:58:33.475Z,37.78
2022-07-29T18:01:00.809Z,37.83
2022-07-29T18:03:28.340Z,37.73
2022-07-29T18:05:55.757Z,37.77
2022-07-29T18:08:23.019Z,37.86
2022-07-29T18:10:50.630Z,37.86
2022-07-29T18:13:18.075Z,37.77
2022-07-29T18:15:45.957Z,37.87
2022-07-29T18:18:14.236Z,37.76
2022-07-29T18:20:42.826Z,37.74
2022-07-29T18:23:10.625Z,37.69
2022-07-29T18:25:39.199Z,37.66
2022-07-29T18:28:06.614Z,37.52
2022-07-29T18:30:36.765Z,37.49
2022-07-29T18:33:20.744Z,37.43
2022-07-29T18:35:52.490Z,37.41
2022-07-29T18:38:39.802Z,37.39
2022-07-29T18:41:09.037Z,37.42
2022-07-29T18:43:56.502Z,37.42
2022-07-29T18:46:23.891Z,37.43
2022-07-29T18:48:53.372Z,37.24
2022-07-29T18:51:21.384Z,37.31
2022-07-29T18:53:48.717Z,37.13
2022-07-29T18:56:24.298Z,37.15
2022-07-29T18:59:00.130Z,37.08
2022-07-29T19:01:31.734Z,37.12
2022-07-29T19:04:00.406Z,37.08
2022-07-29T19:06:27.974Z,37.14
2022-07-29T19:08:57.838Z,36.98
2022-07-29T19:11:25.527Z,37.03
2022-07-29T19:13:53.081Z,36.85
2022-07-29T19:16:26.205Z,36.74
2022-07-29T19:18:54.965Z,36.04
2022-07-29T19:21:24.291Z,35.82
2022-07-29T19:24:01.501Z,35.73
2022-07-29T19:26:36.716Z,35.42
2022-07-29T19:29:04.495Z,35.51
2022-07-29T19:31:31.934Z,36.02
2022-07-29T19:33:59.487Z,35.92
2022-07-29T19:36:27.526Z,35.95
2022-07-29T19:38:54.745Z,35.88
2022-07-29T19:41:22.393Z,36.07
2022-07-29T19:43:52.869Z,35.89
2022-07-29T19:46:21.293Z,36.08
2022-07-29T19:48:49.036Z,36.07
2022-07-29T19:51:16.798Z,35.81
2022-07-29T19:53:44.139Z,36.02
2022-07-29T19:56:11.828Z,36.07
2022-07-29T19:58:40.799Z,35.88
2022-07-29T20:01:10.206Z,35.91
2022-07-29T20:03:40.518Z,35.79
2022-07-29T20:06:09.262Z,35.47
2022-07-29T20:08:46.151Z,35.52
2022-07-29T20:11:13.723Z,35.49
2022-07-29T20:13:40.920Z,35.52
2022-07-29T20:16:08.846Z,35.63
2022-07-29T20:18:36.560Z,35.46
2022-07-29T20:21:04.806Z,35.01
2022-07-29T20:23:33.487Z,35.14
2022-07-29T20:26:01.244Z,35.04
2022-07-29T20:28:28.504Z,35.33
2022-07-29T20:30:55.725Z,35.26
2022-07-29T20:33:23.702Z,35.33
2022-07-29T20:35:51.017Z,35.42
2022-07-29T20:38:18.522Z,35.36
2022-07-29T20:40:46.172Z,35.28
2022-07-29T20:43:13.351Z,35.10
2022-07-29T20:45:40.534Z,34.54
2022-07-29T20:48:08.178Z,33.00
2022-07-29T20:50:35.965Z,33.11
2022-07-29T20:53:03.246Z,33.84
2022-07-29T20:55:32.171Z,34.05
2022-07-29T20:58:01.993Z,34.29
2022-07-29T21:00:29.276Z,33.50
2022-07-29T21:02:57.367Z,34.01
2022-07-29T21:05:25.699Z,33.32
2022-07-29T21:07:57.800Z,33.74
2022-07-29T21:10:29.422Z,34.08
2022-07-29T21:12:56.796Z,33.75
2022-07-29T21:15:24.393Z,34.17
2022-07-29T21:17:59.700Z,34.01
2022-07-29T21:20:27.220Z,34.43
2022-07-29T21:22:55.708Z,34.64
2022-07-29T21:25:23.303Z,34.72
2022-07-29T21:28:09.744Z,34.47
2022-07-29T21:30:37.511Z,33.93
2022-07-29T21:33:04.721Z,33.31
2022-07-29T21:36:15.031Z,33.02
2022-07-29T21:38:19.838Z,32.62
2022-07-29T21:40:47.947Z,33.24
2022-07-29T21:43:15.352Z,32.70
2022-07-29T21:45:47.783Z,33.49
2022-07-29T21:48:15.169Z,32.65
2022-07-29T21:50:43.112Z,33.43
2022-07-29T21:53:10.344Z,33.09
2022-07-29T21:55:41.119Z,33.51
2022-07-29T21:58:08.769Z,33.11
2022-07-29T22:00:36.276Z,33.58
2022-07-29T22:03:04.355Z,34.09
2022-07-29T22:05:31.740Z,34.21
2022-07-29T22:07:59.268Z,34.55
2022-07-29T22:10:27.860Z,34.64
2022-07-29T22:12:55.596Z,34.02
2022-07-29T22:15:23.953Z,34.41
2022-07-29T22:17:51.417Z,34.46
2022-07-29T22:20:18.931Z,34.48
2022-07-29T22:22:48.601Z,34.36
2022-07-29T22:25:16.555Z,33.28
2022-07-29T22:27:43.831Z,31.59
2022-07-29T22:30:11.371Z,31.41
2022-07-29T22:32:39.033Z,31.68
2022-07-29T22:35:06.725Z,31.37
2022-07-29T22:37:37.066Z,30.69
2022-07-29T22:40:04.894Z,29.23
2022-07-29T22:42:32.431Z,29.67
2022-07-29T22:44:59.696Z,30.34
2022-07-29T22:47:46.327Z,29.95
2022-07-29T22:50:14.808Z,29.21
2022-07-29T22:52:42.351Z,28.62
2022-07-29T22:55:09.837Z,27.99
2022-07-29T22:57:38.967Z,28.90
2022-07-29T23:00:06.913Z,28.22
2022-07-29T23:02:34.034Z,27.61
2022-07-29T23:05:01.253Z,27.48
2022-07-29T23:07:28.941Z,28.56
2022-07-29T23:09:56.767Z,28.42
2022-07-29T23:12:23.984Z,28.76
2022-07-29T23:14:51.721Z,28.03
2022-07-29T23:17:18.974Z,27.92
2022-07-29T23:19:46.253Z,27.42
2022-07-29T23:22:13.887Z,27.31
2022-07-29T23:24:41.338Z,28.55
2022-07-29T23:27:09.351Z,28.27
2022-07-29T23:29:36.999Z,28.94
2022-07-29T23:32:04.673Z,27.81
2022-07-29T23:34:32.008Z,27.65
2022-07-29T23:36:59.737Z,28.30
2022-07-29T23:39:27.042Z,27.79
2022-07-29T23:41:54.264Z,27.60
2022-07-29T23:44:21.770Z,27.92
2022-07-29T23:46:49.044Z,27.38
2022-07-29T23:49:16.858Z,27.98
2022-07-29T23:51:44.846Z,28.00
2022-07-29T23:54:12.055Z,27.36
2022-07-29T23:56:39.306Z,28.00
2022-07-29T23:59:06.999Z,27.96
